sensor_id;sensor_type;location;lat;lon;timestamp;temperature;humidity
10083;DHT22;5080;48.528;8.078;2023-12-07T00:01:22;3.10;99.90
10083;DHT22;5080;48.528;8.078;2023-12-07T00:03:49;3.10;99.90
10083;DHT22;5080;48.528;8.078;2023-12-07T00:06:15;3.10;99.90
10083;DHT22;5080;48.528;8.078;2023-12-07T00:08:42;3.10;99.90
10083;DHT22;5080;48.528;8.078;2023-12-07T00:11:10;3.10;99.90
10083;DHT22;5080;48.528;8.078;2023-12-07T00:13:37;3.00;99.90
10083;DHT22;5080;48.528;8.078;2023-12-07T00:16:04;3.00;99.90
10083;DHT22;5080;48.528;8.078;2023-12-07T00:18:31;2.90;99.90
10083;DHT22;5080;48.528;8.078;2023-12-07T00:20:58;2.90;99.90
10083;DHT22;5080;48.528;8.078;2023-12-07T00:23:24;2.90;99.90
10083;DHT22;5080;48.528;8.078;2023-12-07T00:25:51;2.80;99.90
10083;DHT22;5080;48.528;8.078;2023-12-07T00:28:19;2.80;99.90
10083;DHT22;5080;48.528;8.078;2023-12-07T00:30:46;2.80;99.90
10083;DHT22;5080;48.528;8.078;2023-12-07T00:33:12;2.80;99.90
10083;DHT22;5080;48.528;8.078;2023-12-07T00:35:39;2.80;99.90
10083;DHT22;5080;48.528;8.078;2023-12-07T00:38:06;2.80;99.90
10083;DHT22;5080;48.528;8.078;2023-12-07T00:40:34;2.80;99.90
10083;DHT22;5080;48.528;8.078;2023-12-07T00:43:02;2.70;99.90
10083;DHT22;5080;48.528;8.078;2023-12-07T00:45:30;2.70;99.90
10083;DHT22;5080;48.528;8.078;2023-12-07T00:47:57;2.70;99.90
10083;DHT22;5080;48.528;8.078;2023-12-07T00:50:24;2.70;99.90
10083;DHT22;5080;48.528;8.078;2023-12-07T00:52:50;2.70;99.90
10083;DHT22;5080;48.528;8.078;2023-12-07T00:55:17;2.70;99.90
10083;DHT22;5080;48.528;8.078;2023-12-07T00:57:44;2.70;99.90
10083;DHT22;5080;48.528;8.078;2023-12-07T01:00:11;2.70;99.90
10083;DHT22;5080;48.528;8.078;2023-12-07T01:02:39;2.70;99.90
10083;DHT22;5080;48.528;8.078;2023-12-07T01:05:06;2.70;99.90
10083;DHT22;5080;48.528;8.078;2023-12-07T01:07:34;2.50;99.90
10083;DHT22;5080;48.528;8.078;2023-12-07T01:10:01;2.70;99.90
10083;DHT22;5080;48.528;8.078;2023-12-07T01:12:27;2.80;99.90
10083;DHT22;5080;48.528;8.078;2023-12-07T01:14:54;2.80;99.90
10083;DHT22;5080;48.528;8.078;2023-12-07T01:17:21;2.90;99.90
10083;DHT22;5080;48.528;8.078;2023-12-07T01:19:49;2.90;99.90
10083;DHT22;5080;48.528;8.078;2023-12-07T01:22:15;2.90;99.90
10083;DHT22;5080;48.528;8.078;2023-12-07T01:24:42;3.00;99.90
10083;DHT22;5080;48.528;8.078;2023-12-07T01:27:09;3.00;99.90
10083;DHT22;5080;48.528;8.078;2023-12-07T01:29:36;3.00;99.90
10083;DHT22;5080;48.528;8.078;2023-12-07T01:32:03;2.90;99.90
10083;DHT22;5080;48.528;8.078;2023-12-07T01:34:31;2.80;99.90
10083;DHT22;5080;48.528;8.078;2023-12-07T01:36:59;2.90;99.90
10083;DHT22;5080;48.528;8.078;2023-12-07T01:39:26;2.80;99.90
10083;DHT22;5080;48.528;8.078;2023-12-07T01:41:53;2.80;99.90
10083;DHT22;5080;48.528;8.078;2023-12-07T01:44:19;2.70;99.90
10083;DHT22;5080;48.528;8.078;2023-12-07T01:46:46;2.70;99.90
10083;DHT22;5080;48.528;8.078;2023-12-07T01:49:13;2.60;99.90
10083;DHT22;5080;48.528;8.078;2023-12-07T01:51:39;2.50;99.90
10083;DHT22;5080;48.528;8.078;2023-12-07T01:54:08;2.50;99.90
10083;DHT22;5080;48.528;8.078;2023-12-07T01:56:34;2.40;99.90
10083;DHT22;5080;48.528;8.078;2023-12-07T01:59:01;2.40;99.90
10083;DHT22;5080;48.528;8.078;2023-12-07T02:01:28;2.30;99.90
10083;DHT22;5080;48.528;8.078;2023-12-07T02:03:55;2.30;99.90
10083;DHT22;5080;48.528;8.078;2023-12-07T02:06:22;2.30;99.90
10083;DHT22;5080;48.528;8.078;2023-12-07T02:08:49;2.30;99.90
10083;DHT22;5080;48.528;8.078;2023-12-07T02:11:17;2.30;99.90
10083;DHT22;5080;48.528;8.078;2023-12-07T02:13:44;2.30;99.90
10083;DHT22;5080;48.528;8.078;2023-12-07T02:16:24;2.20;99.90
10083;DHT22;5080;48.528;8.078;2023-12-07T02:18:57;2.20;99.90
10083;DHT22;5080;48.528;8.078;2023-12-07T02:21:32;2.20;99.90
10083;DHT22;5080;48.528;8.078;2023-12-07T02:24:01;2.20;99.90
10083;DHT22;5080;48.528;8.078;2023-12-07T02:26:32;2.20;99.90
10083;DHT22;5080;48.528;8.078;2023-12-07T02:28:58;2.10;99.90
10083;DHT22;5080;48.528;8.078;2023-12-07T02:31:25;2.10;99.90
10083;DHT22;5080;48.528;8.078;2023-12-07T02:33:52;2.10;99.90
10083;DHT22;5080;48.528;8.078;2023-12-07T02:36:20;2.10;99.90
10083;DHT22;5080;48.528;8.078;2023-12-07T02:38:49;2.10;99.90
10083;DHT22;5080;48.528;8.078;2023-12-07T02:41:18;2.10;99.90
10083;DHT22;5080;48.528;8.078;2023-12-07T02:43:47;2.10;99.90
10083;DHT22;5080;48.528;8.078;2023-12-07T02:46:14;2.10;99.90
10083;DHT22;5080;48.528;8.078;2023-12-07T02:48:40;2.00;99.90
10083;DHT22;5080;48.528;8.078;2023-12-07T02:51:07;2.00;99.90
10083;DHT22;5080;48.528;8.078;2023-12-07T02:53:34;2.00;99.90
10083;DHT22;5080;48.528;8.078;2023-12-07T02:56:00;1.90;99.90
10083;DHT22;5080;48.528;8.078;2023-12-07T02:58:27;1.90;99.90
10083;DHT22;5080;48.528;8.078;2023-12-07T03:00:55;1.90;99.90
10083;DHT22;5080;48.528;8.078;2023-12-07T03:03:22;1.90;99.90
10083;DHT22;5080;48.528;8.078;2023-12-07T03:05:49;1.90;99.90
10083;DHT22;5080;48.528;8.078;2023-12-07T03:08:15;1.90;99.90
10083;DHT22;5080;48.528;8.078;2023-12-07T03:10:42;1.90;99.90
10083;DHT22;5080;48.528;8.078;2023-12-07T03:13:09;1.80;99.90
10083;DHT22;5080;48.528;8.078;2023-12-07T03:15:35;1.80;99.90
10083;DHT22;5080;48.528;8.078;2023-12-07T03:18:03;1.80;99.90
10083;DHT22;5080;48.528;8.078;2023-12-07T03:20:31;1.70;99.90
10083;DHT22;5080;48.528;8.078;2023-12-07T03:22:57;1.70;99.90
10083;DHT22;5080;48.528;8.078;2023-12-07T03:25:24;1.70;99.90
10083;DHT22;5080;48.528;8.078;2023-12-07T03:27:51;1.60;99.90
10083;DHT22;5080;48.528;8.078;2023-12-07T03:30:18;1.70;99.90
10083;DHT22;5080;48.528;8.078;2023-12-07T03:32:44;1.70;99.90
10083;DHT22;5080;48.528;8.078;2023-12-07T03:35:13;1.70;99.90
10083;DHT22;5080;48.528;8.078;2023-12-07T03:37:39;1.70;99.90
10083;DHT22;5080;48.528;8.078;2023-12-07T03:40:07;1.70;99.90
10083;DHT22;5080;48.528;8.078;2023-12-07T03:42:34;1.60;99.90
10083;DHT22;5080;48.528;8.078;2023-12-07T03:45:01;1.50;99.90
10083;DHT22;5080;48.528;8.078;2023-12-07T03:47:28;1.50;99.90
10083;DHT22;5080;48.528;8.078;2023-12-07T03:49:55;1.40;99.90
10083;DHT22;5080;48.528;8.078;2023-12-07T03:52:23;1.40;99.90
10083;DHT22;5080;48.528;8.078;2023-12-07T03:54:49;1.40;99.90
10083;DHT22;5080;48.528;8.078;2023-12-07T03:57:16;1.40;99.90
10083;DHT22;5080;48.528;8.078;2023-12-07T03:59:42;1.40;99.90
10083;DHT22;5080;48.528;8.078;2023-12-07T04:02:11;1.40;99.90
10083;DHT22;5080;48.528;8.078;2023-12-07T04:04:37;1.50;99.90
10083;DHT22;5080;48.528;8.078;2023-12-07T04:07:04;1.50;99.90
10083;DHT22;5080;48.528;8.078;2023-12-07T04:09:32;1.50;99.90
10083;DHT22;5080;48.528;8.078;2023-12-07T04:11:59;1.50;99.90
10083;DHT22;5080;48.528;8.078;2023-12-07T04:14:26;1.50;99.90
10083;DHT22;5080;48.528;8.078;2023-12-07T04:16:53;1.60;99.90
10083;DHT22;5080;48.528;8.078;2023-12-07T04:19:20;1.60;99.90
10083;DHT22;5080;48.528;8.078;2023-12-07T04:21:46;1.60;99.90
10083;DHT22;5080;48.528;8.078;2023-12-07T04:24:13;1.60;99.90
10083;DHT22;5080;48.528;8.078;2023-12-07T04:26:41;1.50;99.90
10083;DHT22;5080;48.528;8.078;2023-12-07T04:29:08;1.50;99.90
10083;DHT22;5080;48.528;8.078;2023-12-07T04:31:34;1.50;99.90
10083;DHT22;5080;48.528;8.078;2023-12-07T04:34:02;1.50;99.90
10083;DHT22;5080;48.528;8.078;2023-12-07T04:36:28;1.40;99.90
10083;DHT22;5080;48.528;8.078;2023-12-07T04:38:55;1.40;99.90
10083;DHT22;5080;48.528;8.078;2023-12-07T04:41:22;1.40;99.90
10083;DHT22;5080;48.528;8.078;2023-12-07T04:43:50;1.30;99.90
10083;DHT22;5080;48.528;8.078;2023-12-07T04:46:16;1.30;99.90
10083;DHT22;5080;48.528;8.078;2023-12-07T04:48:43;1.30;99.90
10083;DHT22;5080;48.528;8.078;2023-12-07T04:51:10;1.40;99.90
10083;DHT22;5080;48.528;8.078;2023-12-07T04:53:36;1.40;99.90
10083;DHT22;5080;48.528;8.078;2023-12-07T04:56:04;1.30;99.90
10083;DHT22;5080;48.528;8.078;2023-12-07T04:58:31;1.30;99.90
10083;DHT22;5080;48.528;8.078;2023-12-07T05:00:59;1.30;99.90
10083;DHT22;5080;48.528;8.078;2023-12-07T05:03:25;1.30;99.90
10083;DHT22;5080;48.528;8.078;2023-12-07T05:05:52;1.30;99.90
10083;DHT22;5080;48.528;8.078;2023-12-07T05:08:19;1.30;99.90
10083;DHT22;5080;48.528;8.078;2023-12-07T05:10:45;1.30;99.90
10083;DHT22;5080;48.528;8.078;2023-12-07T05:13:12;1.40;99.90
10083;DHT22;5080;48.528;8.078;2023-12-07T05:15:39;1.30;99.90
10083;DHT22;5080;48.528;8.078;2023-12-07T05:18:07;1.40;99.90
10083;DHT22;5080;48.528;8.078;2023-12-07T05:20:34;1.30;99.90
10083;DHT22;5080;48.528;8.078;2023-12-07T05:23:04;1.30;99.90
10083;DHT22;5080;48.528;8.078;2023-12-07T05:25:31;1.30;99.90
10083;DHT22;5080;48.528;8.078;2023-12-07T05:27:59;1.20;99.90
10083;DHT22;5080;48.528;8.078;2023-12-07T05:30:25;1.20;99.90
10083;DHT22;5080;48.528;8.078;2023-12-07T05:32:53;1.20;99.90
10083;DHT22;5080;48.528;8.078;2023-12-07T05:35:21;1.30;99.90
10083;DHT22;5080;48.528;8.078;2023-12-07T05:37:49;1.20;99.90
10083;DHT22;5080;48.528;8.078;2023-12-07T05:40:15;1.20;99.90
10083;DHT22;5080;48.528;8.078;2023-12-07T05:42:42;1.20;99.90
10083;DHT22;5080;48.528;8.078;2023-12-07T05:45:09;1.20;99.90
10083;DHT22;5080;48.528;8.078;2023-12-07T05:47:36;1.10;99.90
10083;DHT22;5080;48.528;8.078;2023-12-07T05:50:03;1.10;99.90
10083;DHT22;5080;48.528;8.078;2023-12-07T05:52:31;1.10;99.90
10083;DHT22;5080;48.528;8.078;2023-12-07T05:54:58;1.20;99.90
10083;DHT22;5080;48.528;8.078;2023-12-07T05:57:26;1.40;99.90
10083;DHT22;5080;48.528;8.078;2023-12-07T05:59:52;4.30;99.90
10083;DHT22;5080;48.528;8.078;2023-12-07T06:02:19;5.70;99.90
10083;DHT22;5080;48.528;8.078;2023-12-07T06:04:46;5.70;99.90
10083;DHT22;5080;48.528;8.078;2023-12-07T06:07:12;4.50;99.90
10083;DHT22;5080;48.528;8.078;2023-12-07T06:09:40;3.60;99.90
10083;DHT22;5080;48.528;8.078;2023-12-07T06:12:07;2.90;99.90
10083;DHT22;5080;48.528;8.078;2023-12-07T06:14:34;2.50;99.90
10083;DHT22;5080;48.528;8.078;2023-12-07T06:17:01;2.20;99.90
10083;DHT22;5080;48.528;8.078;2023-12-07T06:19:28;2.10;99.90
10083;DHT22;5080;48.528;8.078;2023-12-07T06:21:55;1.90;99.90
10083;DHT22;5080;48.528;8.078;2023-12-07T06:24:22;1.80;99.90
10083;DHT22;5080;48.528;8.078;2023-12-07T06:26:51;1.70;99.90
10083;DHT22;5080;48.528;8.078;2023-12-07T06:29:18;1.70;99.90
10083;DHT22;5080;48.528;8.078;2023-12-07T06:31:45;1.60;99.90
10083;DHT22;5080;48.528;8.078;2023-12-07T06:34:11;1.60;99.90
10083;DHT22;5080;48.528;8.078;2023-12-07T06:36:38;1.50;99.90
10083;DHT22;5080;48.528;8.078;2023-12-07T06:39:05;1.40;99.90
10083;DHT22;5080;48.528;8.078;2023-12-07T06:41:32;1.40;99.90
10083;DHT22;5080;48.528;8.078;2023-12-07T06:44:00;1.40;99.90
10083;DHT22;5080;48.528;8.078;2023-12-07T06:46:26;1.40;99.90
10083;DHT22;5080;48.528;8.078;2023-12-07T06:48:54;1.30;99.90
10083;DHT22;5080;48.528;8.078;2023-12-07T06:51:20;1.40;99.90
10083;DHT22;5080;48.528;8.078;2023-12-07T06:53:47;1.30;99.90
10083;DHT22;5080;48.528;8.078;2023-12-07T06:56:14;1.20;99.90
10083;DHT22;5080;48.528;8.078;2023-12-07T06:58:41;1.20;99.90
10083;DHT22;5080;48.528;8.078;2023-12-07T07:01:09;1.20;99.90
10083;DHT22;5080;48.528;8.078;2023-12-07T07:03:36;1.20;99.90
10083;DHT22;5080;48.528;8.078;2023-12-07T07:06:03;1.20;99.90
10083;DHT22;5080;48.528;8.078;2023-12-07T07:08:30;1.20;99.90
10083;DHT22;5080;48.528;8.078;2023-12-07T07:10:57;1.20;99.90
10083;DHT22;5080;48.528;8.078;2023-12-07T07:13:23;1.20;99.90
10083;DHT22;5080;48.528;8.078;2023-12-07T07:15:50;1.30;99.90
10083;DHT22;5080;48.528;8.078;2023-12-07T07:18:18;1.30;99.90
10083;DHT22;5080;48.528;8.078;2023-12-07T07:20:46;1.40;99.90
10083;DHT22;5080;48.528;8.078;2023-12-07T07:23:13;1.40;99.90
10083;DHT22;5080;48.528;8.078;2023-12-07T07:25:39;1.40;99.90
10083;DHT22;5080;48.528;8.078;2023-12-07T07:28:06;1.30;99.90
10083;DHT22;5080;48.528;8.078;2023-12-07T07:30:33;1.30;99.90
10083;DHT22;5080;48.528;8.078;2023-12-07T07:33:00;1.40;99.90
10083;DHT22;5080;48.528;8.078;2023-12-07T07:35:28;1.30;99.90
10083;DHT22;5080;48.528;8.078;2023-12-07T07:37:55;1.40;99.90
10083;DHT22;5080;48.528;8.078;2023-12-07T07:40:22;1.40;99.90
10083;DHT22;5080;48.528;8.078;2023-12-07T07:42:50;1.40;99.90
10083;DHT22;5080;48.528;8.078;2023-12-07T07:45:16;1.40;99.90
10083;DHT22;5080;48.528;8.078;2023-12-07T07:47:43;1.50;99.90
10083;DHT22;5080;48.528;8.078;2023-12-07T07:50:10;1.60;99.90
10083;DHT22;5080;48.528;8.078;2023-12-07T07:52:38;1.60;99.90
10083;DHT22;5080;48.528;8.078;2023-12-07T07:55:06;1.70;99.90
10083;DHT22;5080;48.528;8.078;2023-12-07T07:57:33;1.80;99.90
10083;DHT22;5080;48.528;8.078;2023-12-07T08:00:00;1.90;99.90
10083;DHT22;5080;48.528;8.078;2023-12-07T08:02:27;2.00;99.90
10083;DHT22;5080;48.528;8.078;2023-12-07T08:04:53;2.10;99.90
10083;DHT22;5080;48.528;8.078;2023-12-07T08:07:20;2.30;99.90
10083;DHT22;5080;48.528;8.078;2023-12-07T08:09:48;2.40;99.90
10083;DHT22;5080;48.528;8.078;2023-12-07T08:12:15;2.50;99.90
10083;DHT22;5080;48.528;8.078;2023-12-07T08:14:42;2.60;99.90
10083;DHT22;5080;48.528;8.078;2023-12-07T08:17:10;2.60;99.90
10083;DHT22;5080;48.528;8.078;2023-12-07T08:19:37;2.50;99.90
10083;DHT22;5080;48.528;8.078;2023-12-07T08:22:04;2.60;99.90
10083;DHT22;5080;48.528;8.078;2023-12-07T08:24:31;2.50;99.90
10083;DHT22;5080;48.528;8.078;2023-12-07T08:26:59;2.50;99.90
10083;DHT22;5080;48.528;8.078;2023-12-07T08:29:25;2.50;99.90
10083;DHT22;5080;48.528;8.078;2023-12-07T08:31:52;2.50;99.90
10083;DHT22;5080;48.528;8.078;2023-12-07T08:34:19;2.50;99.90
10083;DHT22;5080;48.528;8.078;2023-12-07T08:36:46;2.50;99.90
10083;DHT22;5080;48.528;8.078;2023-12-07T08:39:13;2.50;99.90
10083;DHT22;5080;48.528;8.078;2023-12-07T08:41:39;2.60;99.90
10083;DHT22;5080;48.528;8.078;2023-12-07T08:44:08;2.50;99.90
10083;DHT22;5080;48.528;8.078;2023-12-07T08:46:34;2.60;99.90
10083;DHT22;5080;48.528;8.078;2023-12-07T08:49:01;2.60;99.90
10083;DHT22;5080;48.528;8.078;2023-12-07T08:51:28;2.60;99.90
10083;DHT22;5080;48.528;8.078;2023-12-07T08:53:55;2.60;99.90
10083;DHT22;5080;48.528;8.078;2023-12-07T08:56:22;2.70;99.90
10083;DHT22;5080;48.528;8.078;2023-12-07T08:58:48;2.80;99.90
10083;DHT22;5080;48.528;8.078;2023-12-07T09:01:18;2.80;99.90
10083;DHT22;5080;48.528;8.078;2023-12-07T09:03:44;2.90;99.90
10083;DHT22;5080;48.528;8.078;2023-12-07T09:06:11;3.10;99.90
10083;DHT22;5080;48.528;8.078;2023-12-07T09:08:38;3.20;99.90
10083;DHT22;5080;48.528;8.078;2023-12-07T09:11:05;3.30;99.90
10083;DHT22;5080;48.528;8.078;2023-12-07T09:13:31;3.50;99.90
10083;DHT22;5080;48.528;8.078;2023-12-07T09:15:58;3.60;99.90
10083;DHT22;5080;48.528;8.078;2023-12-07T09:18:26;3.70;99.90
10083;DHT22;5080;48.528;8.078;2023-12-07T09:20:53;3.80;99.90
10083;DHT22;5080;48.528;8.078;2023-12-07T09:23:19;3.90;99.90
10083;DHT22;5080;48.528;8.078;2023-12-07T09:25:46;4.00;99.90
10083;DHT22;5080;48.528;8.078;2023-12-07T09:28:13;4.10;99.90
10083;DHT22;5080;48.528;8.078;2023-12-07T09:30:39;4.10;99.90
10083;DHT22;5080;48.528;8.078;2023-12-07T09:33:06;4.20;99.90
10083;DHT22;5080;48.528;8.078;2023-12-07T09:35:34;4.30;99.90
10083;DHT22;5080;48.528;8.078;2023-12-07T09:38:01;4.40;99.90
10083;DHT22;5080;48.528;8.078;2023-12-07T09:40:29;4.60;99.90
10083;DHT22;5080;48.528;8.078;2023-12-07T09:42:55;4.70;99.90
10083;DHT22;5080;48.528;8.078;2023-12-07T09:45:22;4.90;99.90
10083;DHT22;5080;48.528;8.078;2023-12-07T09:47:51;5.10;99.90
10083;DHT22;5080;48.528;8.078;2023-12-07T09:50:18;5.10;99.90
10083;DHT22;5080;48.528;8.078;2023-12-07T09:52:49;5.00;99.90
10083;DHT22;5080;48.528;8.078;2023-12-07T09:55:16;4.70;99.90
10083;DHT22;5080;48.528;8.078;2023-12-07T09:57:43;3.90;99.90
10083;DHT22;5080;48.528;8.078;2023-12-07T10:00:11;3.70;99.90
10083;DHT22;5080;48.528;8.078;2023-12-07T10:02:40;3.50;99.90
10083;DHT22;5080;48.528;8.078;2023-12-07T10:05:09;3.10;99.90
10083;DHT22;5080;48.528;8.078;2023-12-07T10:07:39;2.70;99.90
10083;DHT22;5080;48.528;8.078;2023-12-07T10:10:08;2.50;99.90
10083;DHT22;5080;48.528;8.078;2023-12-07T10:12:47;2.30;99.90
10083;DHT22;5080;48.528;8.078;2023-12-07T10:15:15;2.30;99.90
10083;DHT22;5080;48.528;8.078;2023-12-07T10:17:47;2.20;99.90
10083;DHT22;5080;48.528;8.078;2023-12-07T10:20:15;2.20;99.90
10083;DHT22;5080;48.528;8.078;2023-12-07T10:22:42;2.40;99.90
10083;DHT22;5080;48.528;8.078;2023-12-07T10:25:11;2.60;99.90
10083;DHT22;5080;48.528;8.078;2023-12-07T10:27:40;2.60;99.90
10083;DHT22;5080;48.528;8.078;2023-12-07T10:30:09;2.60;99.90
10083;DHT22;5080;48.528;8.078;2023-12-07T10:32:37;2.70;99.90
10083;DHT22;5080;48.528;8.078;2023-12-07T10:35:07;2.70;99.90
10083;DHT22;5080;48.528;8.078;2023-12-07T10:37:34;2.60;99.90
10083;DHT22;5080;48.528;8.078;2023-12-07T10:40:02;2.60;99.90
10083;DHT22;5080;48.528;8.078;2023-12-07T10:42:33;2.50;99.90
10083;DHT22;5080;48.528;8.078;2023-12-07T10:45:04;2.50;99.90
10083;DHT22;5080;48.528;8.078;2023-12-07T10:47:35;2.60;99.90
10083;DHT22;5080;48.528;8.078;2023-12-07T10:50:03;2.70;99.90
10083;DHT22;5080;48.528;8.078;2023-12-07T10:52:32;2.80;99.90
10083;DHT22;5080;48.528;8.078;2023-12-07T10:55:03;2.80;99.90
10083;DHT22;5080;48.528;8.078;2023-12-07T10:57:34;2.70;99.90
10083;DHT22;5080;48.528;8.078;2023-12-07T11:00:03;2.60;99.90
10083;DHT22;5080;48.528;8.078;2023-12-07T11:02:32;2.60;99.90
10083;DHT22;5080;48.528;8.078;2023-12-07T11:04:59;2.50;99.90
10083;DHT22;5080;48.528;8.078;2023-12-07T11:07:33;2.40;99.90
10083;DHT22;5080;48.528;8.078;2023-12-07T11:10:18;2.40;99.90
10083;DHT22;5080;48.528;8.078;2023-12-07T11:12:53;2.30;99.90
10083;DHT22;5080;48.528;8.078;2023-12-07T11:15:21;2.20;99.90
10083;DHT22;5080;48.528;8.078;2023-12-07T11:17:50;2.10;99.90
10083;DHT22;5080;48.528;8.078;2023-12-07T11:20:19;2.20;99.90
10083;DHT22;5080;48.528;8.078;2023-12-07T11:22:46;2.00;99.90
10083;DHT22;5080;48.528;8.078;2023-12-07T11:25:15;2.00;99.90
10083;DHT22;5080;48.528;8.078;2023-12-07T11:27:44;2.10;99.90
10083;DHT22;5080;48.528;8.078;2023-12-07T11:30:15;2.10;99.90
10083;DHT22;5080;48.528;8.078;2023-12-07T11:32:43;2.20;99.90
10083;DHT22;5080;48.528;8.078;2023-12-07T11:35:14;2.20;99.90
10083;DHT22;5080;48.528;8.078;2023-12-07T11:38:00;2.40;99.90
10083;DHT22;5080;48.528;8.078;2023-12-07T11:40:29;2.40;99.90
10083;DHT22;5080;48.528;8.078;2023-12-07T11:42:56;2.40;99.90
10083;DHT22;5080;48.528;8.078;2023-12-07T11:45:40;2.30;99.90
10083;DHT22;5080;48.528;8.078;2023-12-07T11:48:08;2.40;99.90
10083;DHT22;5080;48.528;8.078;2023-12-07T11:50:35;2.50;99.90
10083;DHT22;5080;48.528;8.078;2023-12-07T11:53:02;2.50;99.90
10083;DHT22;5080;48.528;8.078;2023-12-07T11:55:31;2.50;99.90
10083;DHT22;5080;48.528;8.078;2023-12-07T11:57:58;2.30;99.90
10083;DHT22;5080;48.528;8.078;2023-12-07T12:00:25;2.20;99.90
10083;DHT22;5080;48.528;8.078;2023-12-07T12:02:56;2.20;99.90
10083;DHT22;5080;48.528;8.078;2023-12-07T12:05:23;2.30;99.90
10083;DHT22;5080;48.528;8.078;2023-12-07T12:07:50;2.30;99.90
10083;DHT22;5080;48.528;8.078;2023-12-07T12:10:16;2.30;99.90
10083;DHT22;5080;48.528;8.078;2023-12-07T12:12:44;2.30;99.90
10083;DHT22;5080;48.528;8.078;2023-12-07T12:15:11;2.20;99.90
10083;DHT22;5080;48.528;8.078;2023-12-07T12:17:38;2.20;99.90
10083;DHT22;5080;48.528;8.078;2023-12-07T12:20:07;2.20;99.90
10083;DHT22;5080;48.528;8.078;2023-12-07T12:22:36;2.20;99.90
10083;DHT22;5080;48.528;8.078;2023-12-07T12:25:04;2.20;99.90
10083;DHT22;5080;48.528;8.078;2023-12-07T12:27:31;2.20;99.90
10083;DHT22;5080;48.528;8.078;2023-12-07T12:29:58;2.20;99.90
10083;DHT22;5080;48.528;8.078;2023-12-07T12:32:25;2.20;99.90
10083;DHT22;5080;48.528;8.078;2023-12-07T12:34:52;2.00;99.90
10083;DHT22;5080;48.528;8.078;2023-12-07T12:37:20;2.00;99.90
10083;DHT22;5080;48.528;8.078;2023-12-07T12:39:47;2.10;99.90
10083;DHT22;5080;48.528;8.078;2023-12-07T12:42:14;2.00;99.90
10083;DHT22;5080;48.528;8.078;2023-12-07T12:44:42;1.70;99.90
10083;DHT22;5080;48.528;8.078;2023-12-07T12:47:09;1.70;99.90
10083;DHT22;5080;48.528;8.078;2023-12-07T12:49:36;1.70;99.90
10083;DHT22;5080;48.528;8.078;2023-12-07T12:52:05;1.60;99.90
10083;DHT22;5080;48.528;8.078;2023-12-07T12:54:37;1.50;99.90
10083;DHT22;5080;48.528;8.078;2023-12-07T12:57:06;1.60;99.90
10083;DHT22;5080;48.528;8.078;2023-12-07T12:59:33;1.60;99.90
10083;DHT22;5080;48.528;8.078;2023-12-07T13:01:59;1.60;99.90
10083;DHT22;5080;48.528;8.078;2023-12-07T13:04:26;1.70;99.90
10083;DHT22;5080;48.528;8.078;2023-12-07T13:06:53;1.60;99.90
10083;DHT22;5080;48.528;8.078;2023-12-07T13:09:20;1.60;99.90
10083;DHT22;5080;48.528;8.078;2023-12-07T13:11:48;1.50;99.90
10083;DHT22;5080;48.528;8.078;2023-12-07T13:14:15;1.50;99.90
10083;DHT22;5080;48.528;8.078;2023-12-07T13:16:42;1.60;99.90
10083;DHT22;5080;48.528;8.078;2023-12-07T13:19:09;1.70;99.90
10083;DHT22;5080;48.528;8.078;2023-12-07T13:21:36;1.70;99.90
10083;DHT22;5080;48.528;8.078;2023-12-07T13:24:04;1.80;99.90
10083;DHT22;5080;48.528;8.078;2023-12-07T13:26:33;1.80;99.90
10083;DHT22;5080;48.528;8.078;2023-12-07T13:29:01;1.80;99.90
10083;DHT22;5080;48.528;8.078;2023-12-07T13:31:28;1.70;99.90
10083;DHT22;5080;48.528;8.078;2023-12-07T13:33:55;1.60;99.90
10083;DHT22;5080;48.528;8.078;2023-12-07T13:36:22;1.50;99.90
10083;DHT22;5080;48.528;8.078;2023-12-07T13:38:52;1.50;99.90
10083;DHT22;5080;48.528;8.078;2023-12-07T13:41:19;1.50;99.90
10083;DHT22;5080;48.528;8.078;2023-12-07T13:43:45;1.60;99.90
10083;DHT22;5080;48.528;8.078;2023-12-07T13:46:15;1.80;99.90
10083;DHT22;5080;48.528;8.078;2023-12-07T13:48:41;1.90;99.90
10083;DHT22;5080;48.528;8.078;2023-12-07T13:51:08;2.00;99.90
10083;DHT22;5080;48.528;8.078;2023-12-07T13:53:35;2.20;99.90
10083;DHT22;5080;48.528;8.078;2023-12-07T13:56:03;2.20;99.90
10083;DHT22;5080;48.528;8.078;2023-12-07T13:58:30;2.30;99.90
10083;DHT22;5080;48.528;8.078;2023-12-07T14:00:57;2.40;99.90
10083;DHT22;5080;48.528;8.078;2023-12-07T14:03:25;2.50;99.90
10083;DHT22;5080;48.528;8.078;2023-12-07T14:05:52;2.50;99.90
10083;DHT22;5080;48.528;8.078;2023-12-07T14:08:18;2.60;99.90
10083;DHT22;5080;48.528;8.078;2023-12-07T14:10:45;2.70;99.90
10083;DHT22;5080;48.528;8.078;2023-12-07T14:13:13;2.80;99.90
10083;DHT22;5080;48.528;8.078;2023-12-07T14:15:39;2.80;99.90
10083;DHT22;5080;48.528;8.078;2023-12-07T14:18:06;2.90;99.90
10083;DHT22;5080;48.528;8.078;2023-12-07T14:20:34;3.00;99.90
10083;DHT22;5080;48.528;8.078;2023-12-07T14:23:01;3.10;99.90
10083;DHT22;5080;48.528;8.078;2023-12-07T14:25:29;3.10;99.90
10083;DHT22;5080;48.528;8.078;2023-12-07T14:27:56;3.00;99.90
10083;DHT22;5080;48.528;8.078;2023-12-07T14:30:23;2.80;99.90
10083;DHT22;5080;48.528;8.078;2023-12-07T14:32:50;2.80;99.90
10083;DHT22;5080;48.528;8.078;2023-12-07T14:35:18;2.80;99.90
10083;DHT22;5080;48.528;8.078;2023-12-07T14:37:46;2.80;99.90
10083;DHT22;5080;48.528;8.078;2023-12-07T14:40:14;2.70;99.90
10083;DHT22;5080;48.528;8.078;2023-12-07T14:42:42;2.70;99.90
10083;DHT22;5080;48.528;8.078;2023-12-07T14:45:10;2.70;99.90
10083;DHT22;5080;48.528;8.078;2023-12-07T14:47:37;2.60;99.90
10083;DHT22;5080;48.528;8.078;2023-12-07T14:50:05;2.70;99.90
10083;DHT22;5080;48.528;8.078;2023-12-07T14:52:32;2.70;99.90
10083;DHT22;5080;48.528;8.078;2023-12-07T14:55:01;2.40;99.90
10083;DHT22;5080;48.528;8.078;2023-12-07T14:57:29;2.60;99.90
10083;DHT22;5080;48.528;8.078;2023-12-07T14:59:56;2.60;99.90
10083;DHT22;5080;48.528;8.078;2023-12-07T15:02:23;2.50;99.90
10083;DHT22;5080;48.528;8.078;2023-12-07T15:04:50;2.40;99.90
10083;DHT22;5080;48.528;8.078;2023-12-07T15:07:17;2.30;99.90
10083;DHT22;5080;48.528;8.078;2023-12-07T15:09:43;2.30;99.90
10083;DHT22;5080;48.528;8.078;2023-12-07T15:12:15;2.40;99.90
10083;DHT22;5080;48.528;8.078;2023-12-07T15:14:44;2.40;99.90
10083;DHT22;5080;48.528;8.078;2023-12-07T15:17:11;2.40;99.90
10083;DHT22;5080;48.528;8.078;2023-12-07T15:19:38;2.30;99.90
10083;DHT22;5080;48.528;8.078;2023-12-07T15:22:04;2.30;99.90
10083;DHT22;5080;48.528;8.078;2023-12-07T15:24:31;2.40;99.90
10083;DHT22;5080;48.528;8.078;2023-12-07T15:26:58;2.40;99.90
10083;DHT22;5080;48.528;8.078;2023-12-07T15:29:27;2.40;99.90
10083;DHT22;5080;48.528;8.078;2023-12-07T15:31:54;2.30;99.90
10083;DHT22;5080;48.528;8.078;2023-12-07T15:34:21;2.20;99.90
10083;DHT22;5080;48.528;8.078;2023-12-07T15:36:47;2.10;99.90
10083;DHT22;5080;48.528;8.078;2023-12-07T15:39:14;2.10;99.90
10083;DHT22;5080;48.528;8.078;2023-12-07T15:41:41;2.00;99.90
10083;DHT22;5080;48.528;8.078;2023-12-07T15:44:08;1.90;99.90
10083;DHT22;5080;48.528;8.078;2023-12-07T15:46:36;1.70;99.90
10083;DHT22;5080;48.528;8.078;2023-12-07T15:49:03;1.50;99.90
10083;DHT22;5080;48.528;8.078;2023-12-07T15:51:30;1.50;99.90
10083;DHT22;5080;48.528;8.078;2023-12-07T15:53:56;1.40;99.90
10083;DHT22;5080;48.528;8.078;2023-12-07T15:56:23;1.50;99.90
10083;DHT22;5080;48.528;8.078;2023-12-07T15:58:51;1.60;99.90
10083;DHT22;5080;48.528;8.078;2023-12-07T16:01:17;1.60;99.90
10083;DHT22;5080;48.528;8.078;2023-12-07T16:03:45;1.60;99.90